
Distance (Route):
Temperature : 10.5°C
Humidity : 63.9%
Pressure : 0hPa| Receiver | Date | Latitude | Longitude | Direction | Speed | Altitude | Climb | Temperature | Humidity | Pressure | Voltage | Killtimer | Uptime | BKT | XDATA |
|---|---|---|---|---|---|---|---|---|---|---|---|---|---|---|---|
| LZ4TU-5 | 2026-08-31 19:10:19 | 43.16870 | 22.35663 | 100° | 11km/h | 2984m | -14.9m/s | 10.5°C | 63.9% | 0hPa | 0V | 00:00:00 | 00:00:00 | 00:00:00 | |
| LZ4TU-5 | 2026-08-31 19:10:14 | 43.16871 | 22.35643 | 87° | 11km/h | 3059m | -15.0m/s | 9.9°C | 63.0% | 0hPa | 0V | 00:00:00 | 00:00:00 | 00:00:00 | |
| LZ4TU-5 | 2026-08-31 19:10:10 | 43.16870 | 22.35628 | 94° | 11km/h | 3112m | -14.1m/s | 9.3°C | 63.3% | 0hPa | 0V | 00:00:00 | 00:00:00 | 00:00:00 | |
| LZ4TU-5 | 2026-08-31 19:10:06 | 43.16871 | 22.35612 | 96° | 13km/h | 3167m | -14.0m/s | 8.2°C | 64.2% | 0hPa | 0V | 00:00:00 | 00:00:00 | 00:00:00 | |
| LZ4TU-5 | 2026-08-31 19:10:01 | 43.16874 | 22.35590 | 98° | 11km/h | 3240m | -14.2m/s | 7.4°C | 64.0% | 0hPa | 0V | 00:00:00 | 00:00:00 | 00:00:00 | |
| LZ4TU-5 | 2026-08-31 19:09:57 | 43.16875 | 22.35575 | 95° | 11km/h | 3299m | -14.3m/s | 6.9°C | 65.3% | 0hPa | 0V | 00:00:00 | 00:00:00 | 00:00:00 | |
| LZ4TU-5 | 2026-08-31 19:09:53 | 43.16876 | 22.35561 | 98° | 11km/h | 3355m | -14.1m/s | 6.4°C | 65.7% | 0hPa | 0V | 00:00:00 | 00:00:00 | 00:00:00 | |
| LZ4TU-5 | 2026-08-31 19:09:48 | 43.16879 | 22.35542 | 95° | 11km/h | 3423m | -14.2m/s | 5.8°C | 67.5% | 0hPa | 0V | 00:00:00 | 00:00:00 | 00:00:00 | |
| LZ4TU-5 | 2026-08-31 19:09:43 | 43.16880 | 22.35523 | 103° | 13km/h | 3491m | -14.3m/s | 5.2°C | 70.7% | 0hPa | 0V | 00:00:00 | 00:00:00 | 00:00:00 | |
| LZ4TU-5 | 2026-08-31 19:09:39 | 43.16883 | 22.35506 | 99° | 11km/h | 3552m | -14.1m/s | 4.6°C | 73.3% | 0hPa | 0V | 00:00:00 | 00:00:00 | 00:00:00 | |
| LZ4TU-5 | 2026-08-31 19:09:34 | 43.16887 | 22.35486 | 104° | 15km/h | 3628m | -14.4m/s | 4.0°C | 78.5% | 0hPa | 0V | 00:00:00 | 00:00:00 | 00:00:00 | |
| LZ4TU-5 | 2026-08-31 19:09:29 | 43.16891 | 22.35462 | 102° | 15km/h | 3705m | -14.3m/s | 3.3°C | 88.3% | 0hPa | 0V | 00:00:00 | 00:00:00 | 00:00:00 | |
| LZ4TU-5 | 2026-08-31 19:09:24 | 43.16896 | 22.35436 | 111° | 18km/h | 3779m | -14.6m/s | 3.0°C | 95.1% | 0hPa | 0V | 00:00:00 | 00:00:00 | 00:00:00 | |
| LZ4TU-5 | 2026-08-31 19:09:19 | 43.16903 | 22.35402 | 115° | 22km/h | 3850m | -14.6m/s | 2.9°C | 95.6% | 0hPa | 0V | 00:00:00 | 00:00:00 | 00:00:00 | |
| LZ4TU-5 | 2026-08-31 19:09:14 | 43.16913 | 22.35366 | 112° | 22km/h | 3926m | -14.6m/s | 2.4°C | 95.6% | 0hPa | 0V | 00:00:00 | 00:00:00 | 00:00:00 | |
| LZ4TU-5 | 2026-08-31 19:09:09 | 43.16924 | 22.35328 | 113° | 27km/h | 4000m | -14.5m/s | 1.9°C | 95.5% | 0hPa | 0V | 00:00:00 | 00:00:00 | 00:00:00 | |
| LZ4TU-5 | 2026-08-31 19:09:05 | 43.16934 | 22.35296 | 113° | 26km/h | 4056m | -14.3m/s | 1.6°C | 95.4% | 0hPa | 0V | 00:00:00 | 00:00:00 | 00:00:00 | |
| LZ4TU-5 | 2026-08-31 19:09:01 | 43.16945 | 22.35263 | 117° | 26km/h | 4115m | -14.4m/s | 1.2°C | 95.3% | 0hPa | 0V | 00:00:00 | 00:00:00 | 00:00:00 | |
| LZ4TU-5 | 2026-08-31 19:08:51 | 43.16979 | 22.35184 | 122° | 27km/h | 4252m | -14.4m/s | 0.0°C | 94.8% | 0hPa | 0V | 00:00:00 | 00:00:00 | 00:00:00 | |
| LZ4TU-5 | 2026-08-31 19:08:46 | 43.16997 | 22.35143 | 124° | 29km/h | 4326m | -16.3m/s | -0.3°C | 94.5% | 0hPa | 0V | 00:00:00 | 00:00:00 | 00:00:00 | |
| LZ4TU-5 | 2026-08-31 19:08:41 | 43.17019 | 22.35096 | 123° | 33km/h | 4400m | -16.4m/s | -0.7°C | 94.2% | 0hPa | 0V | 00:00:00 | 00:00:00 | 00:00:00 | |
| LZ4TU-5 | 2026-08-31 19:07:45 | 43.17254 | 22.34442 | 119° | 44km/h | 5260m | -15.9m/s | -6.1°C | 92.5% | 0hPa | 0V | 00:00:00 | 00:00:00 | 00:00:00 | |
| LZ4TU-5 | 2026-08-31 19:07:40 | 43.17281 | 22.34375 | 117° | 42km/h | 5334m | -14.7m/s | -6.9°C | 0% | 0hPa | 0V | 00:00:00 | 00:00:00 | 00:00:00 | |
| LZ4TU-5 | 2026-08-31 19:06:44 | 43.17435 | 22.33919 | 95° | 22km/h | 6310m | -18.5m/s | -8.6°C | 9.8% | 0hPa | 0V | 00:00:00 | 00:00:00 | 00:00:00 | |
| LZ4TU-5 | 2026-08-31 19:06:39 | 43.17438 | 22.33881 | 96° | 22km/h | 6405m | -18.2m/s | -9.1°C | 8.9% | 0hPa | 0V | 00:00:00 | 00:00:00 | 00:00:00 | |
| LZ4TU-5 | 2026-08-31 19:05:44 | 43.17569 | 22.33249 | 109° | 44km/h | 7415m | -19.3m/s | -16.7°C | 14.2% | 0hPa | 0V | 00:00:00 | 00:00:00 | 00:00:00 | |
| LZ4TU-5 | 2026-08-31 19:05:39 | 43.17583 | 22.33178 | 108° | 42km/h | 7505m | -19.2m/s | -17.5°C | 0% | 0hPa | 0V | 00:00:00 | 00:00:00 | 00:00:00 | |
| LZ4TU-5 | 2026-08-31 19:04:43 | 43.17753 | 22.32408 | 107° | 40km/h | 8604m | -19.5m/s | -25.6°C | 20.0% | 0hPa | 0V | 00:00:00 | 00:00:00 | 00:00:00 | |
| LZ4TU-5 | 2026-08-31 19:04:38 | 43.17768 | 22.32342 | 110° | 38km/h | 8706m | -19.8m/s | -26.5°C | 20.1% | 0hPa | 0V | 00:00:00 | 00:00:00 | 00:00:00 | |
| LZ4TU-5 | 2026-08-31 19:03:42 | 43.18110 | 22.31514 | 123° | 55km/h | 9841m | -21.0m/s | -35.6°C | 29.6% | 0hPa | 0V | 00:00:00 | 00:00:00 | 00:00:00 | |
| LZ4TU-5 | 2026-08-31 19:03:37 | 43.18147 | 22.31434 | 124° | 55km/h | 9951m | -21.6m/s | -36.6°C | 31.7% | 0hPa | 0V | 00:00:00 | 00:00:00 | 00:00:00 | |
| LZ4TU-5 | 2026-08-31 19:02:40 | 43.18661 | 22.30270 | 123° | 77km/h | 11207m | -23.3m/s | -47.5°C | 39.4% | 0hPa | 0V | 00:00:00 | 00:00:00 | 00:00:00 | |
| LZ4TU-5 | 2026-08-31 19:02:35 | 43.18713 | 22.30158 | 124° | 77km/h | 11323m | -22.8m/s | -48.4°C | 39.7% | 0hPa | 0V | 00:00:00 | 00:00:00 | 00:00:00 | |
| LZ4TU-5 | 2026-08-31 19:01:38 | 43.19359 | 22.28898 | 130° | 73km/h | 12680m | -24.6m/s | -58.3°C | 20.3% | 0hPa | 0V | 00:00:00 | 00:00:00 | 00:00:00 | |
| LZ4TU-5 | 2026-08-31 19:01:33 | 43.19416 | 22.28802 | 131° | 69km/h | 12803m | -24.7m/s | -59.2°C | 0% | 0hPa | 0V | 00:00:00 | 00:00:00 | 00:00:00 | |
| LZ4TU-5 | 2026-08-31 18:59:24 | 43.19809 | 22.26822 | 66° | 18km/h | 16259m | -29.9m/s | -61.1°C | 0.0% | 0hPa | 0V | 00:00:00 | 00:00:00 | 00:00:00 | |
| LZ4TU-5 | 2026-08-31 18:59:19 | 43.19797 | 22.26781 | 70° | 35km/h | 16401m | -29.5m/s | -60.6°C | 0% | 0hPa | 0V | 00:00:00 | 00:00:00 | 00:00:00 | |
| OM5KV | 2026-08-31 18:54:22 | 43.19658 | 22.26561 | 252° | 31km/h | 32829m | -60.1m/s | -37.8°C | 0.0% | 0hPa | 0V | 00:00:00 | 00:00:00 | 00:00:00 | |
| OM5KV | 2026-08-31 18:54:04 | 43.19608 | 22.26733 | 250° | 42km/h | 32980m | 8.2m/s | -38.4°C | 0.0% | 0hPa | 0V | 00:00:00 | 00:00:00 | 00:00:00 | |
| OM5KV | 2026-08-31 18:53:59 | 43.19620 | 22.26782 | 300° | 9km/h | 32948m | 7.2m/s | -38.5°C | 0.0% | 0hPa | 0V | 00:00:00 | 00:00:00 | 00:00:00 | |
| OM5KV | 2026-08-31 18:53:58 | 43.19618 | 22.26784 | 345° | 13km/h | 32941m | 6.4m/s | -38.6°C | 0.0% | 0hPa | 0V | 00:00:00 | 00:00:00 | 00:00:00 | |
| OM5KV | 2026-08-31 18:53:51 | 43.19588 | 22.26853 | 253° | 55km/h | 32904m | 5.0m/s | -38.8°C | 0.0% | 0hPa | 0V | 00:00:00 | 00:00:00 | 00:00:00 | |
| OM5KV | 2026-08-31 18:53:42 | 43.19564 | 22.26917 | 275° | 71km/h | 32851m | 3.5m/s | -38.9°C | 0.0% | 0hPa | 0V | 00:00:00 | 00:00:00 | 00:00:00 | |
| OM5KV | 2026-08-31 18:53:35 | 43.19583 | 22.26942 | 347° | 33km/h | 32813m | 4.4m/s | -39.0°C | 0.0% | 0hPa | 0V | 00:00:00 | 00:00:00 | 00:00:00 | |
| OM5KV | 2026-08-31 18:53:32 | 43.19561 | 22.26990 | 280° | 82km/h | 32782m | 9.1m/s | -39.0°C | 0.0% | 0hPa | 0V | 00:00:00 | 00:00:00 | 00:00:00 | |
| OM5KV | 2026-08-31 18:53:25 | 43.19553 | 22.27053 | 12° | 49km/h | 32736m | 4.3m/s | -39.0°C | 0.0% | 0hPa | 0V | 00:00:00 | 00:00:00 | 00:00:00 | |
| OM5KV | 2026-08-31 18:53:19 | 43.19514 | 22.27136 | 254° | 55km/h | 32695m | 6.5m/s | -39.1°C | 0.0% | 0hPa | 0V | 00:00:00 | 00:00:00 | 00:00:00 | |
| OM5KV | 2026-08-31 18:53:13 | 43.19488 | 22.27198 | 330° | 68km/h | 32652m | 7.4m/s | -39.0°C | 0.0% | 0hPa | 0V | 00:00:00 | 00:00:00 | 00:00:00 | |
| OM5KV | 2026-08-31 18:53:02 | 43.19455 | 22.27326 | 318° | 57km/h | 32582m | 6.4m/s | -38.9°C | 0.0% | 0hPa | 0V | 00:00:00 | 00:00:00 | 00:00:00 | |
| OM5KV | 2026-08-31 18:52:56 | 43.19443 | 22.27379 | 225° | 37km/h | 32540m | 6.7m/s | -38.9°C | 0.0% | 0hPa | 0V | 00:00:00 | 00:00:00 | 00:00:00 | |
| OM5KV | 2026-08-31 18:52:50 | 43.19436 | 22.27435 | 304° | 31km/h | 32496m | 7.4m/s | -39.5°C | 0.0% | 0hPa | 0V | 00:00:00 | 00:00:00 | 00:00:00 | |
| OM5KV | 2026-08-31 18:52:42 | 43.19447 | 22.27490 | 224° | 18km/h | 32440m | 5.8m/s | -39.5°C | 0.0% | 0hPa | 0V | 00:00:00 | 00:00:00 | 00:00:00 | |
| OM5KV | 2026-08-31 18:52:35 | 43.19431 | 22.27553 | 303° | 16km/h | 32391m | 7.9m/s | -39.4°C | 0.0% | 0hPa | 0V | 00:00:00 | 00:00:00 | 00:00:00 | |
| LZ4TU-5 | 2026-08-31 18:51:59 | 43.19374 | 22.27706 | 263° | 22km/h | 32163m | 7.9m/s | -39.7°C | 0.0% | 0hPa | 0V | 00:00:00 | 00:00:00 | 00:00:00 | |
| LZ4TU-5 | 2026-08-31 18:51:54 | 43.19353 | 22.27770 | 309° | 31km/h | 32128m | 5.7m/s | -39.8°C | 0.0% | 0hPa | 0V | 00:00:00 | 00:00:00 | 00:00:00 | |
| LZ4TU-5 | 2026-08-31 18:50:32 | 43.19417 | 22.28439 | 285° | 15km/h | 31592m | 7.2m/s | -40.6°C | 0.0% | 0hPa | 0V | 00:00:00 | 00:00:00 | 00:00:00 | |
| LZ4TU-5 | 2026-08-31 18:50:28 | 43.19437 | 22.28443 | 195° | 47km/h | 31568m | 9.5m/s | -40.5°C | 0.0% | 0hPa | 0V | 00:00:00 | 00:00:00 | 00:00:00 | |
| LZ4TU-5 | 2026-08-31 18:49:10 | 43.19781 | 22.28731 | 213° | 18km/h | 31064m | 6.3m/s | -41.3°C | 0.0% | 0hPa | 0V | 00:00:00 | 00:00:00 | 00:00:00 | |
| LZ4TU-5 | 2026-08-31 18:49:05 | 43.19796 | 22.28757 | 236° | 22km/h | 31029m | 6.3m/s | -41.2°C | 0.0% | 0hPa | 0V | 00:00:00 | 00:00:00 | 00:00:00 | |
| LZ4TU-5 | 2026-08-31 18:47:41 | 43.20002 | 22.29125 | 237° | 27km/h | 30464m | 4.7m/s | -43.0°C | 0.0% | 0hPa | 0V | 00:00:00 | 00:00:00 | 00:00:00 | |
| LZ4TU-5 | 2026-08-31 18:47:36 | 43.20038 | 22.29133 | 181° | 29km/h | 30429m | 6.9m/s | -43.0°C | 0.0% | 0hPa | 0V | 00:00:00 | 00:00:00 | 00:00:00 | |
| OM5KV | 2026-08-31 18:46:26 | 43.20136 | 22.29535 | 283° | 29km/h | 29984m | 7.1m/s | -42.3°C | 0.0% | 0hPa | 0V | 00:00:00 | 00:00:00 | 00:00:00 | |
| LZ4TU-5 | 2026-08-31 18:46:22 | 43.20121 | 22.29565 | 298° | 33km/h | 29958m | 6.4m/s | -42.6°C | 0.0% | 0hPa | 0V | 00:00:00 | 00:00:00 | 00:00:00 | |
| OM5KV | 2026-08-31 18:46:18 | 43.20119 | 22.29615 | 260° | 29km/h | 29932m | 6.8m/s | -42.8°C | 0.0% | 0hPa | 0V | 00:00:00 | 00:00:00 | 00:00:00 | |
| LZ4TU-5 | 2026-08-31 18:46:17 | 43.20121 | 22.29624 | 260° | 22km/h | 29927m | 5.2m/s | -42.8°C | 0.0% | 0hPa | 0V | 00:00:00 | 00:00:00 | 00:00:00 | |
| OM5KV | 2026-08-31 18:45:58 | 43.20123 | 22.29754 | 275° | 5km/h | 29806m | 4.9m/s | -44.1°C | 0.0% | 0hPa | 0V | 00:00:00 | 00:00:00 | 00:00:00 | |
| OM5KV | 2026-08-31 18:45:37 | 43.20140 | 22.29823 | 221° | 9km/h | 29678m | 6.1m/s | -44.7°C | 0.0% | 0hPa | 0V | 00:00:00 | 00:00:00 | 00:00:00 | |
| OM5KV | 2026-08-31 18:45:34 | 43.20151 | 22.29826 | 150° | 13km/h | 29652m | 5.6m/s | -44.7°C | 0.0% | 0hPa | 0V | 00:00:00 | 00:00:00 | 00:00:00 | |
| OM5KV | 2026-08-31 18:45:32 | 43.20155 | 22.29823 | 154° | 13km/h | 29647m | 6.0m/s | -44.7°C | 0.0% | 0hPa | 0V | 00:00:00 | 00:00:00 | 00:00:00 | |
| OM5KV | 2026-08-31 18:45:25 | 43.20152 | 22.29841 | 32° | 9km/h | 29602m | 5.0m/s | -44.6°C | 0.0% | 0hPa | 0V | 00:00:00 | 00:00:00 | 00:00:00 | |
| OM5KV | 2026-08-31 18:45:19 | 43.20173 | 22.29852 | 217° | 27km/h | 29566m | 5.0m/s | -44.4°C | 0.0% | 0hPa | 0V | 00:00:00 | 00:00:00 | 00:00:00 | |
| OM5KV | 2026-08-31 18:45:14 | 43.20169 | 22.29851 | 12° | 16km/h | 29535m | 6.3m/s | -44.3°C | 0.0% | 0hPa | 0V | 00:00:00 | 00:00:00 | 00:00:00 | |
| LZ4TU-5 | 2026-08-31 18:45:11 | 43.20170 | 22.29858 | 215° | 24km/h | 29514m | 6.6m/s | -44.2°C | 0.0% | 0hPa | 0V | 00:00:00 | 00:00:00 | 00:00:00 | |
| LZ4TU-5 | 2026-08-31 18:45:06 | 43.20185 | 22.29868 | 1° | 5km/h | 29482m | 7.7m/s | -44.2°C | 0.0% | 0hPa | 0V | 00:00:00 | 00:00:00 | 00:00:00 | |
| OM5KV | 2026-08-31 18:45:02 | 43.20173 | 22.29872 | 27° | 7km/h | 29458m | 7.1m/s | -44.2°C | 0.0% | 0hPa | 0V | 00:00:00 | 00:00:00 | 00:00:00 | |
| OM5KV | 2026-08-31 18:44:57 | 43.20197 | 22.29867 | 208° | 24km/h | 29425m | 6.9m/s | -44.1°C | 0.0% | 0hPa | 0V | 00:00:00 | 00:00:00 | 00:00:00 | |
| OM5KV | 2026-08-31 18:44:42 | 43.20214 | 22.29891 | 34° | 9km/h | 29329m | 7.5m/s | -44.5°C | 0.0% | 0hPa | 0V | 00:00:00 | 00:00:00 | 00:00:00 | |
| OM5KV | 2026-08-31 18:44:31 | 43.20241 | 22.29876 | 285° | 22km/h | 29260m | 5.2m/s | -44.5°C | 0.0% | 0hPa | 0V | 00:00:00 | 00:00:00 | 00:00:00 | |
| OM5KV | 2026-08-31 18:44:26 | 43.20240 | 22.29845 | 119° | 46km/h | 29225m | 3.2m/s | -44.6°C | 0.0% | 0hPa | 0V | 00:00:00 | 00:00:00 | 00:00:00 | |
| OM5KV | 2026-08-31 18:44:21 | 43.20253 | 22.29843 | 290° | 38km/h | 29190m | 8.9m/s | -44.6°C | 0.0% | 0hPa | 0V | 00:00:00 | 00:00:00 | 00:00:00 | |
| OM5KV | 2026-08-31 18:44:19 | 43.20245 | 22.29864 | 314° | 24km/h | 29181m | 3.4m/s | -44.7°C | 0.0% | 0hPa | 0V | 00:00:00 | 00:00:00 | 00:00:00 | |
| OM5KV | 2026-08-31 18:44:14 | 43.20235 | 22.29837 | 89° | 37km/h | 29146m | 4.8m/s | -45.2°C | 0.0% | 0hPa | 0V | 00:00:00 | 00:00:00 | 00:00:00 | |
| OM5KV | 2026-08-31 18:44:12 | 43.20237 | 22.29816 | 113° | 18km/h | 29135m | 6.6m/s | -45.2°C | 0.0% | 0hPa | 0V | 00:00:00 | 00:00:00 | 00:00:00 | |
| OM5KV | 2026-08-31 18:44:05 | 43.20203 | 22.29845 | 24° | 37km/h | 29092m | 3.8m/s | -45.4°C | 0.0% | 0hPa | 0V | 00:00:00 | 00:00:00 | 00:00:00 | |
| OM5KV | 2026-08-31 18:44:04 | 43.20197 | 22.29837 | 50° | 31km/h | 29085m | 7.7m/s | -45.4°C | 0.0% | 0hPa | 0V | 00:00:00 | 00:00:00 | 00:00:00 | |
| OM5KV | 2026-08-31 18:43:54 | 43.20168 | 22.29847 | 360° | 33km/h | 29019m | 4.6m/s | -45.8°C | 0.0% | 0hPa | 0V | 00:00:00 | 00:00:00 | 00:00:00 | |
| LZ4TU-5 | 2026-08-31 18:43:52 | 43.20160 | 22.29843 | 86° | 11km/h | 29004m | 9.3m/s | -45.8°C | 0.0% | 0hPa | 0V | 00:00:00 | 00:00:00 | 00:00:00 | |
| OM5KV | 2026-08-31 18:43:49 | 43.20173 | 22.29831 | 178° | 24km/h | 28984m | 3.2m/s | -45.9°C | 0.0% | 0hPa | 0V | 00:00:00 | 00:00:00 | 00:00:00 | |
| LZ4TU-5 | 2026-08-31 18:43:47 | 43.20179 | 22.29840 | 272° | 24km/h | 28972m | 8.2m/s | -46.1°C | 0% | 0hPa | 0V | 00:00:00 | 00:00:00 | 00:00:00 | |
| OM5KV | 2026-08-31 18:43:41 | 43.20125 | 22.29864 | 71° | 20km/h | 28936m | 5.9m/s | -46.3°C | 0.0% | 0hPa | 0V | 00:00:00 | 00:00:00 | 00:00:00 | |
| OM5KV | 2026-08-31 18:43:39 | 43.20132 | 22.29856 | 185° | 29km/h | 28918m | 9.3m/s | -46.2°C | 0.0% | 0hPa | 0V | 00:00:00 | 00:00:00 | 00:00:00 | |
| OM5KV | 2026-08-31 18:43:34 | 43.20138 | 22.29911 | 324° | 31km/h | 28886m | 8.7m/s | -46.2°C | 0.0% | 0hPa | 0V | 00:00:00 | 00:00:00 | 00:00:00 | |
| OM5KV | 2026-08-31 18:43:30 | 43.20114 | 22.29909 | 40° | 5km/h | 28859m | 6.3m/s | -46.1°C | 0.0% | 0hPa | 0V | 00:00:00 | 00:00:00 | 00:00:00 | |
| OM5KV | 2026-08-31 18:43:28 | 43.20117 | 22.29912 | 221° | 18km/h | 28844m | 7.4m/s | -46.1°C | 0.0% | 0hPa | 0V | 00:00:00 | 00:00:00 | 00:00:00 | |
| OM5KV | 2026-08-31 18:43:18 | 43.20116 | 22.29949 | 74° | 7km/h | 28780m | 6.4m/s | -46.2°C | 0.0% | 0hPa | 0V | 00:00:00 | 00:00:00 | 00:00:00 | |
| LZ4TU-5 | 2026-08-31 18:42:32 | 43.20230 | 22.29899 | 57° | 22km/h | 28479m | 3.9m/s | -47.2°C | 0.0% | 0hPa | 0V | 00:00:00 | 00:00:00 | 00:00:00 | |
| LZ4TU-5 | 2026-08-31 18:42:27 | 43.20258 | 22.29897 | 213° | 31km/h | 28445m | 4.7m/s | -47.0°C | 0.0% | 0hPa | 0V | 00:00:00 | 00:00:00 | 00:00:00 | |
| LZ4TU-5 | 2026-08-31 18:41:11 | 43.20284 | 22.30037 | 92° | 27km/h | 27959m | 4.7m/s | -46.5°C | 0.0% | 0hPa | 0V | 00:00:00 | 00:00:00 | 00:00:00 | |
| LZ4TU-5 | 2026-08-31 18:41:06 | 43.20297 | 22.30035 | 233° | 37km/h | 27926m | 7.9m/s | -46.5°C | 0.0% | 0hPa | 0V | 00:00:00 | 00:00:00 | 00:00:00 | |
| LZ4TU-5 | 2026-08-31 18:39:54 | 43.20414 | 22.29974 | 0° | 0km/h | 27470m | 8.3m/s | -48.2°C | 0.0% | 0hPa | 0V | 00:00:00 | 00:00:00 | 00:00:00 | |
| LZ4TU-5 | 2026-08-31 18:39:49 | 43.20421 | 22.29980 | 153° | 15km/h | 27439m | 6.3m/s | -48.1°C | 0.0% | 0hPa | 0V | 00:00:00 | 00:00:00 | 00:00:00 | |
| LZ4TU-5 | 2026-08-31 18:38:36 | 43.20651 | 22.29792 | 122° | 42km/h | 26972m | 7.0m/s | -48.2°C | 0.0% | 0hPa | 0V | 00:00:00 | 00:00:00 | 00:00:00 | |
| LZ4TU-5 | 2026-08-31 18:38:31 | 43.20670 | 22.29766 | 302° | 13km/h | 26942m | 7.1m/s | -48.4°C | 0.0% | 0hPa | 0V | 00:00:00 | 00:00:00 | 00:00:00 | |
| LZ4TU-5 | 2026-08-31 18:37:16 | 43.20429 | 22.29476 | 291° | 16km/h | 26463m | 6.3m/s | -48.9°C | 0.0% | 0hPa | 0V | 00:00:00 | 00:00:00 | 00:00:00 | |
| LZ4TU-5 | 2026-08-31 18:37:12 | 43.20419 | 22.29487 | 10° | 20km/h | 26437m | 6.0m/s | -49.2°C | 0% | 0hPa | 0V | 00:00:00 | 00:00:00 | 00:00:00 | |
| LZ4TU-5 | 2026-08-31 18:35:57 | 43.20181 | 22.29680 | 282° | 35km/h | 25951m | 6.9m/s | -49.1°C | 0.0% | 0hPa | 0V | 00:00:00 | 00:00:00 | 00:00:00 | |
| LZ4TU-5 | 2026-08-31 18:35:52 | 43.20167 | 22.29718 | 290° | 16km/h | 25920m | 6.1m/s | -49.2°C | 0.0% | 0hPa | 0V | 00:00:00 | 00:00:00 | 00:00:00 | |
| LZ4TU-5 | 2026-08-31 18:34:38 | 43.20188 | 22.30035 | 340° | 18km/h | 25447m | 5.6m/s | -50.2°C | 0.0% | 0hPa | 0V | 00:00:00 | 00:00:00 | 00:00:00 | |
| LZ4TU-5 | 2026-08-31 18:34:33 | 43.20188 | 22.30060 | 203° | 11km/h | 25415m | 6.1m/s | -50.2°C | 0.0% | 0hPa | 0V | 00:00:00 | 00:00:00 | 00:00:00 | |
| LZ4TU-5 | 2026-08-31 18:33:19 | 43.20018 | 22.30093 | 343° | 16km/h | 24960m | 7.4m/s | -51.4°C | 0.0% | 0hPa | 0V | 00:00:00 | 00:00:00 | 00:00:00 | |
| LZ4TU-5 | 2026-08-31 18:33:15 | 43.20003 | 22.30098 | 301° | 16km/h | 24937m | 6.3m/s | -51.5°C | 0.0% | 0hPa | 0V | 00:00:00 | 00:00:00 | 00:00:00 | |
| LZ4TU-5 | 2026-08-31 18:32:02 | 43.19962 | 22.30490 | 228° | 9km/h | 24495m | 6.1m/s | -52.5°C | 0.0% | 0hPa | 0V | 00:00:00 | 00:00:00 | 00:00:00 | |
| LZ4TU-5 | 2026-08-31 18:31:58 | 43.19968 | 22.30504 | 265° | 9km/h | 24471m | 7.2m/s | -52.6°C | 0.0% | 0hPa | 0V | 00:00:00 | 00:00:00 | 00:00:00 | |
| LZ4TU-5 | 2026-08-31 18:31:53 | 43.19970 | 22.30511 | 212° | 13km/h | 24440m | 5.3m/s | -52.8°C | 0.0% | 0hPa | 0V | 00:00:00 | 00:00:00 | 00:00:00 | |
| LZ4TU-5 | 2026-08-31 18:31:48 | 43.19973 | 22.30520 | 265° | 5km/h | 24410m | 6.8m/s | -52.9°C | 0.0% | 0hPa | 0V | 00:00:00 | 00:00:00 | 00:00:00 | |
| LZ4TU-5 | 2026-08-31 18:30:34 | 43.20123 | 22.30758 | 272° | 38km/h | 23961m | 5.3m/s | -52.8°C | 0.0% | 0hPa | 0V | 00:00:00 | 00:00:00 | 00:00:00 | |
| LZ4TU-5 | 2026-08-31 18:30:29 | 43.20147 | 22.30786 | 186° | 29km/h | 23930m | 7.1m/s | -52.9°C | 0.0% | 0hPa | 0V | 00:00:00 | 00:00:00 | 00:00:00 | |
| LZ4TU-5 | 2026-08-31 18:29:07 | 43.20287 | 22.30969 | 266° | 15km/h | 23440m | 6.1m/s | -53.2°C | 0.0% | 0hPa | 0V | 00:00:00 | 00:00:00 | 00:00:00 | |
| LZ4TU-5 | 2026-08-31 18:29:03 | 43.20290 | 22.30993 | 281° | 11km/h | 23416m | 5.9m/s | -53.4°C | 0.0% | 0hPa | 0V | 00:00:00 | 00:00:00 | 00:00:00 | |
| LZ4TU-5 | 2026-08-31 18:27:48 | 43.20234 | 22.31260 | 328° | 13km/h | 22975m | 6.6m/s | -54.6°C | 0.0% | 0hPa | 0V | 00:00:00 | 00:00:00 | 00:00:00 | |
| LZ4TU-5 | 2026-08-31 18:27:43 | 43.20225 | 22.31285 | 302° | 18km/h | 22946m | 4.8m/s | -54.5°C | 0.0% | 0hPa | 0V | 00:00:00 | 00:00:00 | 00:00:00 | |
| LZ4TU-5 | 2026-08-31 18:26:22 | 43.20406 | 22.31680 | 225° | 18km/h | 22488m | 4.8m/s | -55.1°C | 0.0% | 0hPa | 0V | 00:00:00 | 00:00:00 | 00:00:00 | |
| LZ4TU-5 | 2026-08-31 18:25:07 | 43.20517 | 22.31906 | 215° | 5km/h | 22059m | 6.2m/s | -55.9°C | 0.0% | 0hPa | 0V | 00:00:00 | 00:00:00 | 00:00:00 | |
| LZ4TU-5 | 2026-08-31 18:25:02 | 43.20529 | 22.31913 | 200° | 11km/h | 22029m | 5.6m/s | -55.8°C | 0.0% | 0hPa | 0V | 00:00:00 | 00:00:00 | 00:00:00 | |
| LZ4TU-5 | 2026-08-31 18:23:49 | 43.20727 | 22.31709 | 129° | 27km/h | 21607m | 5.6m/s | -56.3°C | 0.0% | 0hPa | 0V | 00:00:00 | 00:00:00 | 00:00:00 | |
| LZ4TU-5 | 2026-08-31 18:23:45 | 43.20733 | 22.31690 | 45° | 5km/h | 21583m | 5.7m/s | -56.4°C | 0.0% | 0hPa | 0V | 00:00:00 | 00:00:00 | 00:00:00 | |
| LZ4TU-5 | 2026-08-31 18:22:31 | 43.20668 | 22.31273 | 135° | 11km/h | 21153m | 5.3m/s | -55.8°C | 0.0% | 0hPa | 0V | 00:00:00 | 00:00:00 | 00:00:00 | |
| LZ4TU-5 | 2026-08-31 18:22:26 | 43.20658 | 22.31284 | 335° | 26km/h | 21124m | 4.3m/s | -55.6°C | 0% | 0hPa | 0V | 00:00:00 | 00:00:00 | 00:00:00 | |
| LZ4TU-5 | 2026-08-31 18:21:07 | 43.20482 | 22.31090 | 37° | 15km/h | 20691m | 5.1m/s | -56.6°C | 0.0% | 0hPa | 0V | 00:00:00 | 00:00:00 | 00:00:00 | |
| LZ4TU-5 | 2026-08-31 18:20:00 | 43.20269 | 22.30984 | 14° | 13km/h | 20327m | 4.5m/s | -56.8°C | 0.0% | 0hPa | 0V | 00:00:00 | 00:00:00 | 00:00:00 | |
| LZ4TU-5 | 2026-08-31 18:19:55 | 43.20256 | 22.30986 | 27° | 11km/h | 20299m | 5.8m/s | -57.0°C | 0.0% | 0hPa | 0V | 00:00:00 | 00:00:00 | 00:00:00 | |
| LZ4TU-5 | 2026-08-31 18:18:40 | 43.20193 | 22.30657 | 64° | 13km/h | 19898m | 4.9m/s | -56.9°C | 0.3% | 0hPa | 0V | 00:00:00 | 00:00:00 | 00:00:00 | |
| LZ4TU-5 | 2026-08-31 18:18:35 | 43.20184 | 22.30627 | 46° | 20km/h | 19871m | 5.0m/s | -57.0°C | 0.3% | 0hPa | 0V | 00:00:00 | 00:00:00 | 00:00:00 | |
| LZ4TU-5 | 2026-08-31 18:17:23 | 43.19947 | 22.30653 | 31° | 7km/h | 19481m | 4.4m/s | -56.7°C | 0.7% | 0hPa | 0V | 00:00:00 | 00:00:00 | 00:00:00 | |
| LZ4TU-5 | 2026-08-31 18:17:18 | 43.19942 | 22.30647 | 80° | 4km/h | 19455m | 5.0m/s | -56.7°C | 0.7% | 0hPa | 0V | 00:00:00 | 00:00:00 | 00:00:00 | |
| LZ4TU-5 | 2026-08-31 18:16:04 | 43.19889 | 22.30360 | 88° | 15km/h | 19056m | 5.6m/s | -56.8°C | 1.2% | 0hPa | 0V | 00:00:00 | 00:00:00 | 00:00:00 | |
| LZ4TU-5 | 2026-08-31 18:16:00 | 43.19881 | 22.30330 | 74° | 22km/h | 19034m | 5.3m/s | -56.8°C | 0% | 0hPa | 0V | 00:00:00 | 00:00:00 | 00:00:00 | |
| LZ4TU-5 | 2026-08-31 18:14:46 | 43.19683 | 22.30103 | 42° | 15km/h | 18641m | 5.1m/s | -57.6°C | 1.5% | 0hPa | 0V | 00:00:00 | 00:00:00 | 00:00:00 | |
| LZ4TU-5 | 2026-08-31 18:14:41 | 43.19677 | 22.30080 | 89° | 13km/h | 18615m | 5.2m/s | -57.4°C | 1.4% | 0hPa | 0V | 00:00:00 | 00:00:00 | 00:00:00 | |
| LZ4TU-5 | 2026-08-31 18:13:19 | 43.19623 | 22.29679 | 103° | 5km/h | 18197m | 5.5m/s | -61.0°C | 1.8% | 0hPa | 0V | 00:00:00 | 00:00:00 | 00:00:00 | |
| LZ4TU-5 | 2026-08-31 18:13:15 | 43.19619 | 22.29665 | 56° | 18km/h | 18176m | 5.4m/s | -61.0°C | 1.9% | 0hPa | 0V | 00:00:00 | 00:00:00 | 00:00:00 | |
| LZ4TU-5 | 2026-08-31 18:12:00 | 43.19554 | 22.29522 | 181° | 13km/h | 17752m | 4.8m/s | -58.9°C | 2.7% | 0hPa | 0V | 00:00:00 | 00:00:00 | 00:00:00 | |
| LZ4TU-5 | 2026-08-31 18:11:55 | 43.19577 | 22.29508 | 136° | 20km/h | 17725m | 4.0m/s | -58.8°C | 2.7% | 0hPa | 0V | 00:00:00 | 00:00:00 | 00:00:00 | |
| LZ4TU-5 | 2026-08-31 18:10:44 | 43.19702 | 22.28878 | 79° | 42km/h | 17347m | 4.8m/s | -59.2°C | 3.4% | 0hPa | 0V | 00:00:00 | 00:00:00 | 00:00:00 | |
| LZ4TU-5 | 2026-08-31 18:10:39 | 43.19692 | 22.28801 | 91° | 42km/h | 17322m | 5.9m/s | -59.1°C | 3.5% | 0hPa | 0V | 00:00:00 | 00:00:00 | 00:00:00 | |
| LZ4TU-5 | 2026-08-31 18:09:23 | 43.19463 | 22.27825 | 78° | 51km/h | 16962m | 5.0m/s | -59.7°C | 4.8% | 0hPa | 0V | 00:00:00 | 00:00:00 | 00:00:00 | |
| LZ4TU-5 | 2026-08-31 18:09:18 | 43.19455 | 22.27748 | 96° | 40km/h | 16939m | 4.3m/s | -59.7°C | 4.8% | 0hPa | 0V | 00:00:00 | 00:00:00 | 00:00:00 | |
| LZ4TU-5 | 2026-08-31 18:09:13 | 43.19452 | 22.27675 | 87° | 47km/h | 16915m | 4.4m/s | -59.7°C | 4.9% | 0hPa | 0V | 00:00:00 | 00:00:00 | 00:00:00 | |
| LZ4TU-5 | 2026-08-31 18:07:58 | 43.19299 | 22.26679 | 76° | 35km/h | 16535m | 4.4m/s | -60.6°C | 6.6% | 0hPa | 0V | 00:00:00 | 00:00:00 | 00:00:00 | |
| LZ4TU-5 | 2026-08-31 18:07:54 | 43.19286 | 22.26634 | 71° | 35km/h | 16514m | 5.8m/s | -60.5°C | 6.6% | 0hPa | 0V | 00:00:00 | 00:00:00 | 00:00:00 | |
| LZ4TU-5 | 2026-08-31 18:06:27 | 43.19282 | 22.25947 | 115° | 33km/h | 16060m | 6.3m/s | -61.4°C | 8.6% | 0hPa | 0V | 00:00:00 | 00:00:00 | 00:00:00 | |
| LZ4TU-5 | 2026-08-31 18:06:23 | 43.19293 | 22.25912 | 132° | 29km/h | 16039m | 5.2m/s | -61.3°C | 8.7% | 0hPa | 0V | 00:00:00 | 00:00:00 | 00:00:00 | |
| LZ4TU-5 | 2026-08-31 18:05:08 | 43.19498 | 22.24759 | 88° | 46km/h | 15688m | 3.9m/s | -61.8°C | 11.7% | 0hPa | 0V | 00:00:00 | 00:00:00 | 00:00:00 | |
| LZ4TU-5 | 2026-08-31 18:05:03 | 43.19496 | 22.24669 | 92° | 69km/h | 15664m | 3.7m/s | -61.7°C | 12.0% | 0hPa | 0V | 00:00:00 | 00:00:00 | 00:00:00 | |
| LZ4TU-5 | 2026-08-31 18:03:48 | 43.19468 | 22.23535 | 89° | 49km/h | 15331m | 3.9m/s | -62.1°C | 13.8% | 0hPa | 0V | 00:00:00 | 00:00:00 | 00:00:00 | |
| LZ4TU-5 | 2026-08-31 18:03:43 | 43.19461 | 22.23454 | 88° | 47km/h | 15311m | 4.0m/s | -62.0°C | 13.9% | 0hPa | 0V | 00:00:00 | 00:00:00 | 00:00:00 | |
| LZ4TU-5 | 2026-08-31 18:02:29 | 43.19372 | 22.22544 | 59° | 27km/h | 14977m | 4.2m/s | -62.4°C | 17.9% | 0hPa | 0V | 00:00:00 | 00:00:00 | 00:00:00 | |
| LZ4TU-5 | 2026-08-31 18:02:24 | 43.19360 | 22.22499 | 80° | 27km/h | 14954m | 5.0m/s | -62.5°C | 18.3% | 0hPa | 0V | 00:00:00 | 00:00:00 | 00:00:00 | |
| LZ4TU-5 | 2026-08-31 18:01:10 | 43.19568 | 22.21657 | 120° | 68km/h | 14583m | 4.1m/s | -63.8°C | 22.3% | 0hPa | 0V | 00:00:00 | 00:00:00 | 00:00:00 | |
| LZ4TU-5 | 2026-08-31 18:01:05 | 43.19606 | 22.21574 | 121° | 49km/h | 14559m | 4.7m/s | -63.9°C | 0% | 0hPa | 0V | 00:00:00 | 00:00:00 | 00:00:00 | |
| LZ4TU-5 | 2026-08-31 17:59:41 | 43.19831 | 22.20023 | 97° | 42km/h | 14169m | 3.9m/s | -62.9°C | 24.9% | 0hPa | 0V | 00:00:00 | 00:00:00 | 00:00:00 | |
| LZ4TU-5 | 2026-08-31 17:59:36 | 43.19836 | 22.19952 | 95° | 46km/h | 14146m | 3.5m/s | -62.7°C | 25.0% | 0hPa | 0V | 00:00:00 | 00:00:00 | 00:00:00 | |
| LZ4TU-5 | 2026-08-31 17:58:22 | 43.19993 | 22.19167 | 127° | 33km/h | 13821m | 5.3m/s | -62.0°C | 26.6% | 0hPa | 0V | 00:00:00 | 00:00:00 | 00:00:00 | |
| LZ4TU-5 | 2026-08-31 17:58:17 | 43.20017 | 22.19142 | 148° | 24km/h | 13798m | 4.6m/s | -62.1°C | 27.0% | 0hPa | 0V | 00:00:00 | 00:00:00 | 00:00:00 | |
| LZ4TU-5 | 2026-08-31 17:56:55 | 43.20522 | 22.18178 | 130° | 55km/h | 13413m | 5.2m/s | -61.0°C | 0% | 0hPa | 0V | 00:00:00 | 00:00:00 | 00:00:00 | |
| LZ4TU-5 | 2026-08-31 17:55:43 | 43.21119 | 22.17150 | 134° | 62km/h | 13089m | 3.9m/s | -59.8°C | 37.4% | 0hPa | 0V | 00:00:00 | 00:00:00 | 00:00:00 | |
| LZ4TU-5 | 2026-08-31 17:55:39 | 43.21156 | 22.17084 | 126° | 55km/h | 13071m | 5.2m/s | -59.7°C | 38.0% | 0hPa | 0V | 00:00:00 | 00:00:00 | 00:00:00 | |
| LZ4TU-5 | 2026-08-31 17:54:24 | 43.22061 | 22.15728 | 138° | 78km/h | 12743m | 4.1m/s | -59.2°C | 41.1% | 0hPa | 0V | 00:00:00 | 00:00:00 | 00:00:00 | |
| LZ4TU-5 | 2026-08-31 17:54:19 | 43.22123 | 22.15631 | 125° | 75km/h | 12722m | 3.5m/s | -59.0°C | 40.9% | 0hPa | 0V | 00:00:00 | 00:00:00 | 00:00:00 | |
| LZ4TU-5 | 2026-08-31 17:53:05 | 43.23101 | 22.14152 | 134° | 69km/h | 12413m | 4.9m/s | -57.0°C | 39.5% | 0hPa | 0V | 00:00:00 | 00:00:00 | 00:00:00 | |
| LZ4TU-5 | 2026-08-31 17:53:01 | 43.23145 | 22.14075 | 129° | 80km/h | 12396m | 5.0m/s | -56.8°C | 39.6% | 0hPa | 0V | 00:00:00 | 00:00:00 | 00:00:00 | |
| LZ4TU-5 | 2026-08-31 17:51:48 | 43.24063 | 22.12496 | 132° | 78km/h | 12063m | 5.5m/s | -54.4°C | 37.7% | 0hPa | 0V | 00:00:00 | 00:00:00 | 00:00:00 | |
| LZ4TU-5 | 2026-08-31 17:51:43 | 43.24131 | 22.12395 | 129° | 77km/h | 12042m | 4.4m/s | -54.3°C | 37.6% | 0hPa | 0V | 00:00:00 | 00:00:00 | 00:00:00 | |
| LZ4TU-5 | 2026-08-31 17:50:22 | 43.25095 | 22.10582 | 130° | 84km/h | 11673m | 3.7m/s | -51.5°C | 34.8% | 0hPa | 0V | 00:00:00 | 00:00:00 | 00:00:00 | |
| LZ4TU-5 | 2026-08-31 17:50:17 | 43.25153 | 22.10467 | 126° | 78km/h | 11650m | 4.1m/s | -51.4°C | 0% | 0hPa | 0V | 00:00:00 | 00:00:00 | 00:00:00 | |
| LZ4TU-5 | 2026-08-31 17:49:04 | 43.25970 | 22.08829 | 123° | 75km/h | 11318m | 3.8m/s | -49.1°C | 36.3% | 0hPa | 0V | 00:00:00 | 00:00:00 | 00:00:00 | |
| LZ4TU-5 | 2026-08-31 17:48:59 | 43.26023 | 22.08718 | 125° | 71km/h | 11296m | 4.1m/s | -48.9°C | 36.2% | 0hPa | 0V | 00:00:00 | 00:00:00 | 00:00:00 | |
| LZ4TU-5 | 2026-08-31 17:47:45 | 43.26805 | 22.07212 | 137° | 68km/h | 10946m | 5.4m/s | -46.0°C | 35.9% | 0hPa | 0V | 00:00:00 | 00:00:00 | 00:00:00 | |
| LZ4TU-5 | 2026-08-31 17:47:41 | 43.26844 | 22.07127 | 116° | 75km/h | 10923m | 6.2m/s | -45.9°C | 35.7% | 0hPa | 0V | 00:00:00 | 00:00:00 | 00:00:00 | |
| LZ4TU-5 | 2026-08-31 17:46:27 | 43.27599 | 22.05601 | 125° | 57km/h | 10570m | 5.1m/s | -42.7°C | 30.6% | 0hPa | 0V | 00:00:00 | 00:00:00 | 00:00:00 | |
| LZ4TU-5 | 2026-08-31 17:46:22 | 43.27637 | 22.05536 | 131° | 69km/h | 10552m | 4.2m/s | -42.6°C | 30.3% | 0hPa | 0V | 00:00:00 | 00:00:00 | 00:00:00 | |
| LZ4TU-5 | 2026-08-31 17:45:07 | 43.28325 | 22.04143 | 121° | 57km/h | 10182m | 6.2m/s | -39.2°C | 25.8% | 0hPa | 0V | 00:00:00 | 00:00:00 | 00:00:00 | |
| LZ4TU-5 | 2026-08-31 17:45:03 | 43.28360 | 22.04078 | 127° | 51km/h | 10160m | 5.0m/s | -39.0°C | 25.6% | 0hPa | 0V | 00:00:00 | 00:00:00 | 00:00:00 | |
| LZ4TU-5 | 2026-08-31 17:43:48 | 43.28967 | 22.02953 | 127° | 60km/h | 9787m | 5.0m/s | -35.8°C | 21.5% | 0hPa | 0V | 00:00:00 | 00:00:00 | 00:00:00 | |
| LZ4TU-5 | 2026-08-31 17:43:43 | 43.29011 | 22.02868 | 130° | 46km/h | 9763m | 4.9m/s | -35.6°C | 21.1% | 0hPa | 0V | 00:00:00 | 00:00:00 | 00:00:00 | |
| LZ4TU-5 | 2026-08-31 17:42:27 | 43.29528 | 22.01869 | 129° | 53km/h | 9405m | 4.6m/s | -32.8°C | 19.5% | 0hPa | 0V | 00:00:00 | 00:00:00 | 00:00:00 | |
| LZ4TU-5 | 2026-08-31 17:42:23 | 43.29558 | 22.01816 | 132° | 44km/h | 9387m | 5.8m/s | -32.7°C | 19.2% | 0hPa | 0V | 00:00:00 | 00:00:00 | 00:00:00 | |
| LZ4TU-5 | 2026-08-31 17:40:59 | 43.30164 | 22.00681 | 129° | 47km/h | 8982m | 4.7m/s | -29.2°C | 14.8% | 0hPa | 0V | 00:00:00 | 00:00:00 | 00:00:00 | |
| LZ4TU-5 | 2026-08-31 17:40:55 | 43.30190 | 22.00637 | 132° | 38km/h | 8964m | 3.7m/s | -29.1°C | 14.7% | 0hPa | 0V | 00:00:00 | 00:00:00 | 00:00:00 | |
| LZ4TU-5 | 2026-08-31 17:40:51 | 43.30210 | 22.00580 | 111° | 51km/h | 8944m | 4.0m/s | -28.9°C | 14.6% | 0hPa | 0V | 00:00:00 | 00:00:00 | 00:00:00 | |
| LZ4TU-5 | 2026-08-31 17:40:46 | 43.30250 | 22.00508 | 145° | 47km/h | 8923m | 4.4m/s | -28.7°C | 14.5% | 0hPa | 0V | 00:00:00 | 00:00:00 | 00:00:00 | |
| LZ4TU-5 | 2026-08-31 17:39:33 | 43.30657 | 21.99584 | 108° | 46km/h | 8528m | 6.2m/s | -25.8°C | 17.9% | 0hPa | 0V | 00:00:00 | 00:00:00 | 00:00:00 | |
| LZ4TU-5 | 2026-08-31 17:39:28 | 43.30683 | 21.99521 | 126° | 33km/h | 8496m | 5.5m/s | -25.5°C | 17.7% | 0hPa | 0V | 00:00:00 | 00:00:00 | 00:00:00 | |
| LZ4TU-5 | 2026-08-31 17:38:14 | 43.30938 | 21.98588 | 111° | 47km/h | 8100m | 4.8m/s | -21.9°C | 12.7% | 0hPa | 0V | 00:00:00 | 00:00:00 | 00:00:00 | |
| LZ4TU-5 | 2026-08-31 17:38:09 | 43.30938 | 21.98512 | 79° | 38km/h | 8073m | 4.3m/s | -21.6°C | 11.7% | 0hPa | 0V | 00:00:00 | 00:00:00 | 00:00:00 | |
| LZ4TU-5 | 2026-08-31 17:36:52 | 43.31158 | 21.97448 | 127° | 49km/h | 7666m | 4.8m/s | -18.1°C | 8.1% | 0hPa | 0V | 00:00:00 | 00:00:00 | 00:00:00 | |
| LZ4TU-5 | 2026-08-31 17:36:47 | 43.31181 | 21.97372 | 95° | 53km/h | 7643m | 5.4m/s | -18.0°C | 8.2% | 0hPa | 0V | 00:00:00 | 00:00:00 | 00:00:00 | |
| LZ4TU-5 | 2026-08-31 17:35:39 | 43.31377 | 21.96439 | 74° | 37km/h | 7281m | 5.7m/s | -15.8°C | 12.7% | 0hPa | 0V | 00:00:00 | 00:00:00 | 00:00:00 | |
| LZ4TU-5 | 2026-08-31 17:35:35 | 43.31387 | 21.96396 | 131° | 49km/h | 7260m | 6.0m/s | -15.6°C | 0% | 0hPa | 0V | 00:00:00 | 00:00:00 | 00:00:00 | |
| LZ4TU-5 | 2026-08-31 17:34:07 | 43.31617 | 21.95193 | 120° | 44km/h | 6845m | 5.1m/s | -12.7°C | 14.5% | 0hPa | 0V | 00:00:00 | 00:00:00 | 00:00:00 | |
| LZ4TU-5 | 2026-08-31 17:34:02 | 43.31648 | 21.95130 | 103° | 44km/h | 6826m | 5.4m/s | -12.6°C | 14.9% | 0hPa | 0V | 00:00:00 | 00:00:00 | 00:00:00 | |
| LZ4TU-5 | 2026-08-31 17:32:58 | 43.31821 | 21.94354 | 82° | 46km/h | 6501m | 5.0m/s | -11.0°C | 10.4% | 0hPa | 0V | 00:00:00 | 00:00:00 | 00:00:00 | |
| LZ4TU-5 | 2026-08-31 17:32:53 | 43.31826 | 21.94276 | 122° | 47km/h | 6481m | 5.1m/s | -11.0°C | 10.9% | 0hPa | 0V | 00:00:00 | 00:00:00 | 00:00:00 | |
| LZ4TU-5 | 2026-08-31 17:31:51 | 43.31980 | 21.93409 | 73° | 40km/h | 6202m | 5.5m/s | -9.6°C | 20.6% | 0hPa | 0V | 00:00:00 | 00:00:00 | 00:00:00 | |
| LZ4TU-5 | 2026-08-31 17:31:47 | 43.31969 | 21.93338 | 100° | 58km/h | 6184m | 5.1m/s | -9.6°C | 22.3% | 0hPa | 0V | 00:00:00 | 00:00:00 | 00:00:00 | |
| LZ4TU-5 | 2026-08-31 17:30:40 | 43.32150 | 21.92463 | 107° | 33km/h | 5781m | 5.8m/s | -6.8°C | 23.8% | 0hPa | 0V | 00:00:00 | 00:00:00 | 00:00:00 | |
| LZ4TU-5 | 2026-08-31 17:29:39 | 43.32181 | 21.91752 | 117° | 20km/h | 5364m | 6.9m/s | -5.9°C | 51.3% | 0hPa | 0V | 00:00:00 | 00:00:00 | 00:00:00 | |
| LZ4TU-5 | 2026-08-31 17:29:34 | 43.32194 | 21.91711 | 111° | 27km/h | 5327m | 7.9m/s | -6.7°C | 70.0% | 0hPa | 0V | 00:00:00 | 00:00:00 | 00:00:00 | |
| LZ4TU-5 | 2026-08-31 17:28:34 | 43.32408 | 21.90925 | 101° | 46km/h | 4915m | 6.1m/s | -4.1°C | 81.3% | 0hPa | 0V | 00:00:00 | 00:00:00 | 00:00:00 | |
| LZ4TU-5 | 2026-08-31 17:28:29 | 43.32429 | 21.90843 | 117° | 38km/h | 4882m | 7.0m/s | -3.9°C | 78.3% | 0hPa | 0V | 00:00:00 | 00:00:00 | 00:00:00 | |
| LZ4TU-5 | 2026-08-31 17:27:27 | 43.32536 | 21.90051 | 109° | 31km/h | 4478m | 6.4m/s | -0.8°C | 70.1% | 0hPa | 0V | 00:00:00 | 00:00:00 | 00:00:00 | |
| LZ4TU-5 | 2026-08-31 17:27:23 | 43.32546 | 21.90016 | 123° | 22km/h | 4451m | 6.9m/s | -0.5°C | 69.6% | 0hPa | 0V | 00:00:00 | 00:00:00 | 00:00:00 | |
| LZ4TU-5 | 2026-08-31 17:26:21 | 43.32663 | 21.89518 | 73° | 24km/h | 4051m | 5.7m/s | 1.3°C | 80.0% | 0hPa | 0V | 00:00:00 | 00:00:00 | 00:00:00 | |
| LZ4TU-5 | 2026-08-31 17:26:17 | 43.32665 | 21.89495 | 123° | 24km/h | 4025m | 7.0m/s | 1.4°C | 79.6% | 0hPa | 0V | 00:00:00 | 00:00:00 | 00:00:00 | |
| LZ4TU-5 | 2026-08-31 17:25:07 | 43.32760 | 21.88973 | 110° | 16km/h | 3607m | 6.0m/s | 4.3°C | 78.4% | 0hPa | 0V | 00:00:00 | 00:00:00 | 00:00:00 | |
| LZ4TU-5 | 2026-08-31 17:25:02 | 43.32759 | 21.88936 | 65° | 22km/h | 3577m | 5.7m/s | 4.6°C | 0% | 0hPa | 0V | 00:00:00 | 00:00:00 | 00:00:00 |